Flight Track Log - Related Links

Times and Time Zones

All times are in EDT time to prevent confusion due to time zone crossing. See the SWA2436 flight status page for this flight to view local times or setup timezone preferences in your user account.

Time Position Orientation Groundspeed Altitude Reporting Facility
EDT Latitude Longitude Course Direction KTS MPH feet Rate Location/Type
Fri 04:57:29 PM 42.9500 -71.4167 14° North 152 175 1,400  Level KA90
Fri 04:58:23 PM 43.0000 -71.4000 14° North 211 243 3,600 2,051 Climbing KA90
Fri 04:58:48 PM 43.0019 -71.3756 84° East 225 259 4,100 1,976 Climbing Boston Center
Fri 04:59:48 PM 43.0239 -71.2728 74° East 268 308 6,400 2,949 Climbing Boston Center
Fri 05:00:46 PM 43.0478 -71.1672 73° East 301 346 9,900 2,847 Climbing Boston Center
Fri 05:01:46 PM 43.0731 -71.0133 77° East 350 403 12,000 2,331 Climbing Boston Center
Fri 05:02:47 PM 43.0133 -70.9153 130° Southeast 354 407 14,600 2,926 Climbing Boston Center
Fri 05:03:47 PM 42.9092 -70.9178 181° South 300 345 17,900 2,529 Climbing Boston Center
Fri 05:04:48 PM 42.8283 -70.9594 201° Southwest 303 349 19,700 2,132 Climbing Boston Center
Fri 05:05:48 PM 42.7289 -71.0072 199° South 340 391 22,200 2,339 Climbing Boston Center
Fri 05:06:46 PM 42.6233 -71.0631 201° Southwest 376 433 24,300 2,034 Climbing Boston Center
Fri 05:07:46 PM 42.5622 -71.1828 235° Southwest 378 435 26,200 1,835 Climbing Boston Center
Fri 05:08:47 PM 42.5094 -71.3136 241° Southwest 383 441 28,000 1,835 Climbing Boston Center
Fri 05:09:47 PM 42.4567 -71.4522 243° Southwest 403 464 29,900 1,900 Climbing Boston Center
Fri 05:10:47 PM 42.3972 -71.5825 238° Southwest 409 471 31,800 2,083 Climbing Boston Center
Fri 05:11:48 PM 42.3439 -71.7097 240° Southwest 409 471 34,100 1,916 Climbing Boston Center
Fri 05:12:46 PM 42.2944 -71.8339 242° Southwest 398 458 35,600 1,361 Climbing Boston Center
Fri 05:13:47 PM 42.2411 -71.9606 240° Southwest 393 452 36,800 1,041 Climbing Boston Center
Fri 05:14:47 PM 42.1894 -72.0869 241° Southwest 393 452 37,700 600 Climbing Boston Center
Fri 05:15:47 PM 42.1356 -72.2189 241° Southwest 399 459 38,000 148 Climbing Boston Center
Fri 05:16:49 PM 42.0897 -72.3339 242° Southwest 399 459 38,000  Level Boston Center
Fri 05:17:46 PM 42.0253 -72.4847 240° Southwest 399 459 38,000  Level Boston Center
Fri 05:18:47 PM 41.9731 -72.6106 241° Southwest 399 459 38,000  Level Boston Center
Fri 05:19:47 PM 41.9250 -72.7136 238° Southwest 386 444 38,000  Level Boston Center
Fri 05:20:47 PM 41.8392 -72.8275 225° Southwest 386 444 38,000  Level Boston Center
Fri 05:21:48 PM 41.7617 -72.9356 226° Southwest 394 453 38,000  Level Boston Center
Fri 05:22:46 PM 41.6881 -73.0350 225° Southwest 399 459 38,000  Level Boston Center
Fri 05:23:47 PM 41.6147 -73.1342 225° Southwest 393 452 38,000  Level Boston Center
Fri 05:25:29 PM 41.4969 -73.2919 225° Southwest 377 434 38,000  Level New York Center
Fri 05:26:29 PM 41.4219 -73.3942 226° Southwest 377 434 38,000  Level New York Center
Fri 05:27:30 PM 41.3467 -73.4961 225° Southwest 377 434 38,000  Level New York Center
Fri 05:28:28 PM 41.2714 -73.5978 225° Southwest 383 441 38,000  Level New York Center
Fri 05:29:29 PM 41.2061 -73.7108 233° Southwest 383 441 38,000  Level New York Center
Fri 05:30:30 PM 41.1411 -73.8211 232° Southwest 388 447 38,000  Level New York Center
Fri 05:31:28 PM 41.0778 -73.9311 233° Southwest 388 447 38,000  Level New York Center
Fri 05:32:28 PM 41.0144 -74.0353 231° Southwest 382 440 38,000  Level New York Center
Fri 05:33:29 PM 40.9508 -74.1450 233° Southwest 382 440 38,000  Level New York Center
Fri 05:34:30 PM 40.8747 -74.2619 229° Southwest 382 440 38,000  Level New York Center
Fri 05:35:30 PM 40.8089 -74.3681 231° Southwest 388 447 38,000  Level New York Center
Fri 05:36:28 PM 40.7431 -74.4797 232° Southwest 388 447 38,000  Level New York Center
Fri 05:37:28 PM 40.6769 -74.5883 231° Southwest 388 447 38,000  Level New York Center
Fri 05:38:29 PM 40.6089 -74.6939 230° Southwest 388 447 38,000  Level New York Center
Fri 05:39:30 PM 40.5386 -74.8044 230° Southwest 389 448 38,000  Level New York Center
Fri 05:40:28 PM 40.4683 -74.9039 227° Southwest 389 448 38,000  Level New York Center
Fri 05:41:29 PM 40.3981 -75.0061 228° Southwest 384 442 38,000  Level New York Center
Fri 05:42:29 PM 40.3278 -75.1053 227° Southwest 379 436 38,000  Level New York Center
Fri 05:43:30 PM 40.2553 -75.2067 227° Southwest 379 436 38,000  Level New York Center
Fri 05:44:30 PM 40.1847 -75.3081 228° Southwest 379 436 38,000  Level New York Center
Fri 05:45:30 PM 40.1142 -75.4042 226° Southwest 379 436 38,000  Level New York Center
Fri 05:46:28 PM 40.0414 -75.5050 227° Southwest 379 436 38,000  Level New York Center
Fri 05:47:28 PM 39.9708 -75.6031 227° Southwest 379 436 38,000  Level New York Center
Fri 05:48:29 PM 39.9019 -75.7067 229° Southwest 379 436 38,000  Level New York Center
Fri 05:49:27 PM 39.8328 -75.8125 230° Southwest 385 443 38,000  Level New York Center
Fri 05:50:28 PM 39.7656 -75.9186 231° Southwest 385 443 38,000  Level New York Center
Fri 05:51:28 PM 39.7025 -76.0244 232° Southwest 385 443 38,000  Level New York Center
Fri 05:53:25 PM 39.5681 -76.2242 229° Southwest 363 418 38,000  Level Washington Center
Fri 05:54:25 PM 39.5031 -76.3283 231° Southwest 363 418 38,000  Level Washington Center
Fri 05:55:25 PM 39.4356 -76.4325 230° Southwest 375 432 38,000  Level Washington Center
Fri 05:56:25 PM 39.3786 -76.5233 231° Southwest 375 432 38,000  Level Washington Center
Fri 05:57:25 PM 39.3111 -76.6269 230° Southwest 375 432 38,000  Level Washington Center
Fri 05:58:25 PM 39.2456 -76.7306 231° Southwest 375 432 38,000  Level Washington Center
Fri 05:59:25 PM 39.1800 -76.8314 230° Southwest 375 432 38,000  Level Washington Center
Fri 06:00:25 PM 39.1144 -76.9344 231° Southwest 375 432 38,000  Level Washington Center
Fri 06:01:25 PM 39.0486 -77.0350 230° Southwest 375 432 38,000  Level Washington Center
Fri 06:02:25 PM 38.9725 -77.1189 221° Southwest 375 432 38,000  Level Washington Center
Fri 06:03:25 PM 38.8942 -77.2025 220° Southwest 375 432 38,000  Level Washington Center
Fri 06:04:25 PM 38.8158 -77.2914 221° Southwest 375 432 38,000  Level Washington Center
Fri 06:05:25 PM 38.7356 -77.3747 219° Southwest 380 437 38,000  Level Washington Center
Fri 06:06:25 PM 38.6569 -77.4633 221° Southwest 380 437 38,000  Level Washington Center
Fri 06:07:25 PM 38.5764 -77.5489 220° Southwest 380 437 38,000  Level Washington Center
Fri 06:08:25 PM 38.5000 -77.6317 220° Southwest 380 437 38,000  Level Washington Center
Fri 06:09:25 PM 38.4192 -77.7169 220° Southwest 380 437 38,000  Level Washington Center
Fri 06:10:25 PM 38.3428 -77.7994 220° Southwest 380 437 38,000  Level Washington Center
Fri 06:11:25 PM 38.2639 -77.8844 220° Southwest 375 432 38,000  Level Washington Center
Fri 06:12:25 PM 38.1789 -77.9769 221° Southwest 375 432 38,000  Level Washington Center
Fri 06:13:25 PM 38.1000 -78.0614 220° Southwest 375 432 38,000  Level Washington Center
Fri 06:14:25 PM 38.0189 -78.1458 219° Southwest 375 432 38,000  Level Washington Center
Fri 06:15:25 PM 37.9400 -78.2275 219° Southwest 375 432 38,000  Level Washington Center
Fri 06:16:25 PM 37.8589 -78.3061 217° Southwest 375 432 38,000  Level Washington Center
Fri 06:17:25 PM 37.7822 -78.3769 216° Southwest 380 437 38,000  Level Washington Center
Fri 06:18:25 PM 37.7011 -78.4553 217° Southwest 380 437 38,000  Level Washington Center
Fri 06:19:25 PM 37.6181 -78.5308 216° Southwest 375 432 38,000  Level Washington Center
Fri 06:20:25 PM 37.5347 -78.6089 217° Southwest 375 432 38,000  Level Washington Center
Fri 06:21:25 PM 37.4428 -78.6942 216° Southwest 375 432 38,000  Level Washington Center
Fri 06:22:25 PM 37.3614 -78.7719 217° Southwest 375 432 38,000  Level Washington Center
Fri 06:23:25 PM 37.2758 -78.8492 216° Southwest 375 432 38,000  Level Washington Center
Fri 06:24:25 PM 37.1925 -78.9264 216° Southwest 375 432 38,000  Level Washington Center
Fri 06:25:25 PM 37.1197 -78.9936 216° Southwest 375 432 38,000  Level Washington Center
Fri 06:26:25 PM 37.0383 -79.0681 216° Southwest 375 432 38,000  Level Washington Center
Fri 06:27:25 PM 36.9589 -79.1450 218° Southwest 375 432 38,000  Level Washington Center
Fri 06:28:25 PM 36.8772 -79.2192 216° Southwest 375 432 38,000  Level Washington Center
Fri 06:31:03 PM 36.6533 -79.4225 216° Southwest 370 426 38,000  Level Atlanta Center
Fri 06:32:03 PM 36.5728 -79.4969 217° Southwest 359 413 38,000  Level Atlanta Center
Fri 06:33:03 PM 36.4939 -79.5658 215° Southwest 359 413 38,000  Level Atlanta Center
Fri 06:34:03 PM 36.4114 -79.6428 217° Southwest 364 419 38,000  Level Atlanta Center
Fri 06:35:03 PM 36.3264 -79.7197 216° Southwest 364 419 38,000 50 Level Atlanta Center
Fri 06:36:03 PM 36.2436 -79.7961 217° Southwest 364 419 38,100  Climbing Atlanta Center
Fri 06:37:03 PM 36.1506 -79.8781 215° Southwest 364 419 38,000 -50 Descending Atlanta Center
Fri 06:38:03 PM 36.0675 -79.9544 217° Southwest 364 419 38,000  Level Atlanta Center
Fri 06:39:03 PM 35.9669 -80.0006 200° South 364 419 38,000  Level Atlanta Center
Fri 06:40:03 PM 35.8739 -80.0308 195° South 377 434 38,000  Level Atlanta Center
Fri 06:41:03 PM 35.7708 -80.0667 196° South 382 440 38,000  Level Atlanta Center
Fri 06:42:03 PM 35.6594 -80.1025 195° South 387 445 38,000  Level Atlanta Center
Fri 06:43:03 PM 35.5539 -80.1358 194° South 387 445 38,000  Level Atlanta Center
Fri 06:44:03 PM 35.4467 -80.1714 195° South 398 458 38,000 50 Level Atlanta Center
Fri 06:45:03 PM 35.3536 -80.2039 196° South 393 452 38,100  Climbing Atlanta Center
Fri 06:46:03 PM 35.2483 -80.2367 194° South 393 452 38,000 -33 Descending Atlanta Center
Fri 06:48:04 PM 35.0447 -80.3014 195° South 379 436 38,000  Level Jacksonville Center
Fri 06:49:04 PM 34.9475 -80.3347 196° South 373 429 38,000  Level Jacksonville Center
Fri 06:50:04 PM 34.8478 -80.3656 194° South 368 423 38,000  Level Jacksonville Center
Fri 06:51:04 PM 34.7483 -80.3989 195° South 356 410 38,000  Level Jacksonville Center
Fri 06:52:04 PM 34.6531 -80.4292 195° South 356 410 38,000  Level Jacksonville Center
Fri 06:53:04 PM 34.5578 -80.4572 194° South 356 410 38,000  Level Jacksonville Center
Fri 06:54:04 PM 34.4622 -80.4875 195° South 356 410 38,000  Level Jacksonville Center
Fri 06:55:04 PM 34.3692 -80.5178 195° South 356 410 38,000  Level Jacksonville Center
Fri 06:56:04 PM 34.2736 -80.5506 196° South 356 410 38,000  Level Jacksonville Center
Fri 06:57:04 PM 34.1803 -80.5783 194° South 356 410 38,000  Level Jacksonville Center
Fri 06:58:04 PM 34.0850 -80.6083 195° South 356 410 38,000  Level Jacksonville Center
Fri 06:59:04 PM 33.9917 -80.6383 195° South 356 410 38,000  Level Jacksonville Center
Fri 07:00:04 PM 33.8961 -80.6683 195° South 356 410 38,000  Level Jacksonville Center
Fri 07:01:04 PM 33.8028 -80.6956 194° South 356 410 38,000  Level Jacksonville Center
Fri 07:02:04 PM 33.7114 -80.7253 195° South 356 410 38,000  Level Jacksonville Center
Fri 07:03:04 PM 33.6181 -80.7525 194° South 356 410 38,000  Level Jacksonville Center
Fri 07:04:04 PM 33.5244 -80.7822 195° South 356 410 38,000  Level Jacksonville Center
Fri 07:05:04 PM 33.4292 -80.8144 196° South 356 410 38,000  Level Jacksonville Center
Fri 07:06:04 PM 33.3314 -80.8417 193° South 356 410 38,000  Level Jacksonville Center
Fri 07:07:04 PM 33.2381 -80.8711 195° South 356 410 38,000  Level Jacksonville Center
Fri 07:08:04 PM 33.1425 -80.9006 194° South 356 410 38,000  Level Jacksonville Center
Fri 07:09:04 PM 33.0489 -80.9275 194° South 356 410 38,000  Level Jacksonville Center
Fri 07:10:04 PM 32.9556 -80.9567 195° South 356 410 38,000  Level Jacksonville Center
Fri 07:11:04 PM 32.8578 -80.9883 195° South 356 410 38,000  Level Jacksonville Center
Fri 07:12:04 PM 32.7622 -81.0175 194° South 356 410 38,000  Level Jacksonville Center
Fri 07:13:04 PM 32.6667 -81.0442 193° South 351 404 38,000  Level Jacksonville Center
Fri 07:14:04 PM 32.5689 -81.0758 195° South 358 412 38,000  Level Jacksonville Center
Fri 07:15:04 PM 32.4775 -81.1047 195° South 371 427 38,000  Level Jacksonville Center
Fri 07:16:04 PM 32.3631 -81.1364 193° South 377 434 38,000  Level Jacksonville Center
Fri 07:17:04 PM 32.2611 -81.1656 194° South 375 432 38,000  Level Jacksonville Center
Fri 07:18:04 PM 32.1636 -81.1942 194° South 368 423 38,000  Level Jacksonville Center
Fri 07:19:04 PM 32.0808 -81.2619 215° Southwest 363 418 38,000  Level Jacksonville Center
Fri 07:20:04 PM 32.0067 -81.3369 221° Southwest 357 411 38,000  Level Jacksonville Center
Fri 07:21:04 PM 31.9364 -81.4042 219° Southwest 366 421 38,000  Level Jacksonville Center
Fri 07:22:04 PM 31.8561 -81.4861 221° Southwest 361 415 38,000  Level Jacksonville Center
Fri 07:23:04 PM 31.7794 -81.5631 220° Southwest 361 415 38,000  Level Jacksonville Center
Fri 07:24:04 PM 31.7092 -81.6300 219° Southwest 367 422 38,000  Level Jacksonville Center
Fri 07:25:04 PM 31.6244 -81.7142 220° Southwest 372 428 38,000  Level Jacksonville Center
Fri 07:26:04 PM 31.5542 -81.7808 219° Southwest 373 429 38,000  Level Jacksonville Center
Fri 07:27:04 PM 31.4672 -81.8647 219° Southwest 373 429 38,000  Level Jacksonville Center
Fri 07:28:04 PM 31.3906 -81.9408 220° Southwest 373 429 38,000  Level Jacksonville Center
Fri 07:29:04 PM 31.2925 -81.9833 200° South 369 425 38,000  Level Jacksonville Center
Fri 07:30:04 PM 31.1883 -82.0061 191° South 380 437 38,000 -300 Level Jacksonville Center
Fri 07:31:04 PM 31.0819 -82.0267 189° South 387 445 37,400 -800 Descending Jacksonville Center
Fri 07:32:04 PM 30.9778 -82.0517 192° South 392 451 36,400 -950 Descending Jacksonville Center
Fri 07:33:04 PM 30.8714 -82.0744 190° South 392 451 35,500 -950 Descending Jacksonville Center
Fri 07:34:04 PM 30.7653 -82.0997 192° South 392 451 34,500 -750 Descending Jacksonville Center
Fri 07:35:04 PM 30.6672 -82.1222 191° South 392 451 34,000 -250 Descending Jacksonville Center
Fri 07:36:04 PM 30.5608 -82.1472 191° South 397 457 34,000  Level Jacksonville Center
Fri 07:37:04 PM 30.4544 -82.1647 188° South 392 451 34,000 -50 Level Jacksonville Center
Fri 07:38:04 PM 30.3439 -82.1897 191° South 392 451 33,900 -550 Descending Jacksonville Center
Fri 07:39:04 PM 30.2356 -82.2122 190° South 392 451 32,900 -950 Descending Jacksonville Center
Fri 07:40:04 PM 30.1206 -82.2225 184° South 398 458 32,000 -1,000 Descending Jacksonville Center
Fri 07:41:04 PM 30.0036 -82.1994 170° South 413 475 30,900 -1,050 Descending Jacksonville Center
Fri 07:42:04 PM 29.8886 -82.1572 162° South 418 481 29,900 -1,650 Descending Jacksonville Center
Fri 07:43:04 PM 29.7714 -82.1150 163° South 433 498 27,600 -2,350 Descending Jacksonville Center
Fri 07:44:04 PM 29.6606 -82.0681 160° South 433 498 25,200 -2,250 Descending Jacksonville Center
Fri 07:45:04 PM 29.5517 -82.0308 163° South 428 493 23,100 -2,150 Descending Jacksonville Center
Fri 07:46:04 PM 29.4428 -81.9911 162° South 416 479 20,900 -2,200 Descending Jacksonville Center
Fri 07:47:04 PM 29.3361 -81.9517 162° South 410 472 18,700 -2,200 Descending Jacksonville Center
Fri 07:48:04 PM 29.2356 -81.9169 163° South 400 460 16,500 -2,200 Descending Jacksonville Center
Fri 07:49:04 PM 29.1372 -81.8750 160° South 388 447 14,300 -2,100 Descending Jacksonville Center
Fri 07:50:04 PM 29.0472 -81.8403 161° South 362 417 12,300 -1,200 Descending Jacksonville Center
Fri 07:51:04 PM 28.9697 -81.7983 155° Southeast 336 387 11,900 -800 Descending Jacksonville Center
Fri 07:52:04 PM 28.9167 -81.7256 130° Southeast 307 353 10,700 -1,250 Descending Jacksonville Center
Fri 07:53:04 PM 28.8639 -81.6550 130° Southeast 299 344 9,400 -1,043 Descending Jacksonville Center
Fri 07:53:36 PM 28.8333 -81.6000 122° Southeast 278 320 9,100 -1,102 Descending Orlando TRACON
Fri 07:54:42 PM 28.7667 -81.5333 139° Southeast 283 326 7,600 -1,440 Descending Orlando TRACON
Fri 07:55:41 PM 28.7167 -81.4667 131° Southeast 296 341 6,100 -1,311 Descending Orlando TRACON
Fri 07:56:41 PM 28.6667 -81.4000 131° Southeast 290 334 5,000 -939 Descending Orlando TRACON
Fri 07:57:36 PM 28.6333 -81.3333 120° Southeast 261 300 4,300 -826 Descending Orlando TRACON
Fri 07:58:30 PM 28.5833 -81.3000 150° Southeast 189 217 3,500 -1,059 Descending Orlando TRACON
Fri 07:59:35 PM 28.5333 -81.3000 180° South 148 170 2,200 -1,095 Descending Orlando TRACON
Fri 08:00:36 PM 28.5000 -81.3000 180° South 138 159 1,200 -793 Descending Orlando TRACON
Fri 08:01:36 PM 28.4500 -81.3000 180° South 140 161 600 -600 Descending Orlando TRACON
Fri 08:03:00 PM 28.4294 -81.3090 180° South  Level Estimated
Fri 08:10:00 PM 28.4294 -81.3090 24° Northeast  Level Estimated
Fri 08:11:00 PM 28.4294 -81.3090 24° Northeast  Level Estimated
Fri 08:12:00 PM 28.4294 -81.3090 24° Northeast  Level Estimated
Fri 08:13:00 PM 28.4294 -81.3090 24° Northeast  Level Estimated

Login

Don't have an account? Register now (free) for customized features, flight alerts, and more!